Time;durP1;ratioP1;P1;durP2;ratioP2;P2;SDS_P1;SDS_P2;PMS_P1;PMS_P2;Temp;Humidity;BMP_temperature;BMP_pressure;BME280_temperature;BME280_humidity;BME280_pressure;Samples;Min_cycle;Max_cycle;Signal;HPM_P1;HPM_P2
2022/10/28 00:01:19;;;;;;;15.38;7.45;;;15.50;99.90;;;;;;5051691;28;20436;-80
2022/10/28 00:03:50;;;;;;;16.95;7.50;;;15.50;99.90;;;;;;5051613;28;20053;-80
2022/10/28 00:06:21;;;;;;;13.82;7.35;;;15.50;99.90;;;;;;5033579;28;20508;-80
2022/10/28 00:08:47;;;;;;;15.65;7.40;;;15.50;99.90;;;;;;5051872;28;20159;-79
2022/10/28 00:11:16;;;;;;;14.45;7.68;;;15.50;99.90;;;;;;5051555;28;20037;-79
2022/10/28 00:13:42;;;;;;;13.60;7.15;;;15.50;99.90;;;;;;5068518;28;20166;-78
2022/10/28 00:16:08;;;;;;;12.52;7.22;;;15.50;99.90;;;;;;5067733;28;20064;-79
2022/10/28 00:18:34;;;;;;;13.55;7.10;;;15.50;99.90;;;;;;5051886;28;20045;-79
2022/10/28 00:21:05;;;;;;;11.18;7.15;;;15.50;99.90;;;;;;5067392;28;20044;-79
2022/10/28 00:23:31;;;;;;;13.25;7.03;;;15.60;99.90;;;;;;5032442;28;20451;-79
2022/10/28 00:26:08;;;;;;;12.95;7.10;;;15.70;99.90;;;;;;5049146;28;20033;-79
2022/10/28 00:28:34;;;;;;;13.20;7.35;;;15.70;99.90;;;;;;5035245;28;20132;-79
2022/10/28 00:31:07;;;;;;;14.63;7.15;;;15.70;99.90;;;;;;5051659;28;20120;-79
2022/10/28 00:33:32;;;;;;;14.52;7.65;;;15.80;99.90;;;;;;5051635;28;20045;-79
2022/10/28 00:36:18;;;;;;;13.65;7.10;;;15.90;99.90;;;;;;5043421;28;20090;-79
2022/10/28 00:38:45;;;;;;;14.98;7.75;;;15.90;99.90;;;;;;5051764;28;20045;-80
2022/10/28 00:41:13;;;;;;;15.10;7.82;;;15.80;99.90;;;;;;5070579;28;20047;-80
2022/10/28 00:43:46;;;;;;;15.90;8.93;;;15.70;99.90;;;;;;5038853;28;20082;-80
2022/10/28 00:46:22;;;;;;;15.13;8.02;;;15.70;99.90;;;;;;5053935;28;20041;-80
2022/10/28 00:48:53;;;;;;;16.02;8.73;;;15.80;99.90;;;;;;5071689;28;20439;-80
2022/10/28 00:51:21;;;;;;;15.55;7.22;;;15.90;99.90;;;;;;5054797;28;20125;-79
2022/10/28 00:53:47;;;;;;;15.68;8.32;;;16.00;99.90;;;;;;5055301;28;20044;-80
2022/10/28 00:56:15;;;;;;;14.57;8.45;;;16.10;99.90;;;;;;5054480;28;20037;-80
2022/10/28 00:58:41;;;;;;;20.73;9.43;;;15.90;99.90;;;;;;5055529;28;20098;-80
2022/10/28 01:01:06;;;;;;;15.10;8.88;;;15.80;99.90;;;;;;5054351;28;20048;-80
2022/10/28 01:03:32;;;;;;;14.18;9.30;;;15.80;99.90;;;;;;5054931;28;20469;-80
2022/10/28 01:05:59;;;;;;;16.13;8.45;;;15.80;99.90;;;;;;5051923;28;20044;-79
2022/10/28 01:08:25;;;;;;;17.65;9.77;;;15.70;99.90;;;;;;5053734;28;20083;-80
2022/10/28 01:11:06;;;;;;;17.10;9.32;;;15.70;99.90;;;;;;5037925;28;20068;-80
2022/10/28 01:13:57;;;;;;;17.05;8.93;;;15.70;99.90;;;;;;5054976;28;20045;-80
2022/10/28 01:17:03;;;;;;;14.77;8.85;;;15.80;99.90;;;;;;5054773;28;20044;-81
2022/10/28 01:19:28;;;;;;;16.25;8.90;;;15.80;99.90;;;;;;5071752;28;20049;-81
2022/10/28 01:22:09;;;;;;;16.73;8.90;;;15.80;99.90;;;;;;5070467;28;20052;-81
2022/10/28 01:24:50;;;;;;;13.23;8.45;;;15.80;99.90;;;;;;5043987;28;20036;-81
2022/10/28 01:27:40;;;;;;;13.23;8.77;;;15.80;99.90;;;;;;5071422;28;20072;-80
2022/10/28 01:30:22;;;;;;;15.15;9.23;;;15.70;99.90;;;;;;5070181;28;20518;-80
2022/10/28 01:33:03;;;;;;;;;;;15.70;99.90;;;;;;5047782;28;20550;-80
2022/10/28 01:35:36;;;;;;;16.45;8.85;;;15.70;99.90;;;;;;5053398;28;20406;-80
2022/10/28 01:38:29;;;;;;;15.95;8.18;;;15.60;99.90;;;;;;5071573;28;20049;-80
2022/10/28 01:41:12;;;;;;;17.63;9.50;;;15.60;99.90;;;;;;5069861;28;20091;-80
2022/10/28 01:43:49;;;;;;;13.90;8.70;;;15.60;99.90;;;;;;5071106;28;20077;-79
2022/10/28 01:46:33;;;;;;;14.15;9.13;;;15.60;99.90;;;;;;5070105;28;20041;-79
2022/10/28 01:49:15;;;;;;;14.88;8.77;;;15.60;99.90;;;;;;5054563;28;20037;-79
2022/10/28 01:51:47;;;;;;;14.82;9.63;;;15.50;99.90;;;;;;5069517;28;20041;-80
2022/10/28 01:54:17;;;;;;;15.93;8.90;;;15.50;99.90;;;;;;5051539;28;20492;-80
2022/10/28 01:56:45;;;;;;;16.98;9.38;;;15.50;99.90;;;;;;5052066;28;20071;-80
2022/10/28 01:59:24;;;;;;;14.88;9.68;;;15.50;99.90;;;;;;5054318;28;20043;-79
2022/10/28 02:01:50;;;;;;;15.52;9.38;;;15.50;99.90;;;;;;5052394;28;20124;-79
2022/10/28 02:04:16;;;;;;;18.85;9.48;;;15.50;99.90;;;;;;5053198;28;20135;-79
2022/10/28 02:06:45;;;;;;;14.73;9.50;;;15.60;99.90;;;;;;5053009;28;20072;-80
2022/10/28 02:09:19;;;;;;;17.73;9.50;;;15.50;99.90;;;;;;5071007;28;20037;-80
2022/10/28 02:12:03;;;;;;;17.35;9.68;;;15.60;99.90;;;;;;5052918;28;20040;-81
2022/10/28 02:14:47;;;;;;;19.25;9.75;;;15.50;99.90;;;;;;5070581;28;20052;-79
2022/10/28 02:17:39;;;;;;;18.30;9.68;;;15.50;99.90;;;;;;5053357;28;20148;-81
2022/10/28 02:20:15;;;;;;;18.52;8.90;;;15.50;99.90;;;;;;5069583;28;20094;-80
2022/10/28 02:22:57;;;;;;;17.45;9.93;;;15.50;99.90;;;;;;5033766;28;20037;-80
2022/10/28 02:25:52;;;;;;;19.40;10.07;;;15.50;99.90;;;;;;5053137;28;20048;-80
2022/10/28 02:28:30;;;;;;;17.65;9.68;;;15.50;99.90;;;;;;5016060;28;20041;-80
2022/10/28 02:31:12;;;;;;;13.93;9.38;;;15.40;99.90;;;;;;5055555;28;20045;-80
2022/10/28 02:33:40;;;;;;;16.90;9.68;;;15.40;99.90;;;;;;5053110;28;20551;-80
2022/10/28 02:36:13;;;;;;;17.10;9.38;;;15.30;99.90;;;;;;5069246;28;20045;-80
2022/10/28 02:38:43;;;;;;;16.77;9.13;;;15.30;99.90;;;;;;5053465;28;20576;-80
2022/10/28 02:41:32;;;;;;;15.00;9.18;;;15.30;99.90;;;;;;5069484;28;20041;-80
2022/10/28 02:44:02;;;;;;;18.77;9.68;;;15.20;99.90;;;;;;5035987;28;20063;-80
2022/10/28 02:46:30;;;;;;;15.60;9.95;;;15.20;99.90;;;;;;5044657;28;20037;-81
2022/10/28 02:49:09;;;;;;;15.57;9.57;;;15.20;99.90;;;;;;5070085;28;20055;-80
2022/10/28 02:51:43;;;;;;;15.35;9.35;;;15.10;99.90;;;;;;5069240;28;20052;-80
2022/10/28 02:54:13;;;;;;;21.33;9.98;;;15.10;99.90;;;;;;5036721;28;20051;-80
2022/10/28 02:56:48;;;;;;;18.08;10.43;;;15.00;99.90;;;;;;5052045;28;20045;-81
2022/10/28 02:59:13;;;;;;;18.38;10.10;;;15.00;99.90;;;;;;5036576;28;20079;-81
2022/10/28 03:01:39;;;;;;;14.93;8.82;;;15.00;99.90;;;;;;5051141;28;20466;-80
2022/10/28 03:04:05;;;;;;;17.35;9.65;;;14.90;99.90;;;;;;5050311;28;20127;-81
2022/10/28 03:06:31;;;;;;;19.05;9.27;;;15.00;99.90;;;;;;5068090;28;20440;-80
2022/10/28 03:08:56;;;;;;;16.98;9.73;;;15.00;99.90;;;;;;5068495;28;20400;-80
2022/10/28 03:11:22;;;;;;;17.25;9.85;;;15.00;99.90;;;;;;5053030;28;20040;-80
2022/10/28 03:13:47;;;;;;;19.33;10.00;;;15.00;99.90;;;;;;5053007;28;20098;-80
2022/10/28 03:16:13;;;;;;;17.42;10.20;;;15.00;99.90;;;;;;5051880;28;20041;-80
2022/10/28 03:18:39;;;;;;;18.05;9.70;;;15.00;99.90;;;;;;5051913;28;20079;-79
2022/10/28 03:21:04;;;;;;;17.23;9.98;;;15.00;99.90;;;;;;5069216;28;20446;-79
2022/10/28 03:23:30;;;;;;;16.23;9.98;;;15.00;99.90;;;;;;5052543;28;20048;-80
2022/10/28 03:25:55;;;;;;;18.73;10.40;;;15.00;99.90;;;;;;5051439;28;20036;-80
2022/10/28 03:28:21;;;;;;;17.33;9.35;;;15.00;99.90;;;;;;5035434;28;20033;-80
2022/10/28 03:30:46;;;;;;;16.60;10.20;;;14.90;99.90;;;;;;5051431;28;20048;-80
2022/10/28 03:33:12;;;;;;;24.17;18.35;;;14.90;99.90;;;;;;5035027;28;20045;-80
2022/10/28 03:35:38;;;;;;;18.15;10.82;;;14.80;99.90;;;;;;5035104;28;20475;-80
2022/10/28 03:38:03;;;;;;;17.15;10.05;;;14.70;99.90;;;;;;5035687;28;20048;-79
2022/10/28 03:40:29;;;;;;;15.50;9.75;;;14.70;99.90;;;;;;5051828;28;20128;-80
2022/10/28 03:42:54;;;;;;;14.00;8.77;;;14.60;99.90;;;;;;5052117;28;20124;-80
2022/10/28 03:45:20;;;;;;;18.08;9.77;;;14.60;99.90;;;;;;5068452;28;20037;-80
2022/10/28 03:47:45;;;;;;;14.80;9.25;;;14.50;99.90;;;;;;5068769;28;20038;-80
2022/10/28 03:50:11;;;;;;;16.65;9.13;;;14.50;99.90;;;;;;5051196;28;20508;-80
2022/10/28 03:52:36;;;;;;;15.82;9.23;;;14.50;99.90;;;;;;5052140;28;20036;-79
2022/10/28 03:55:02;;;;;;;16.52;8.75;;;14.40;99.90;;;;;;5052073;28;20124;-79
2022/10/28 03:57:32;;;;;;;14.63;9.15;;;14.50;99.90;;;;;;5031795;28;20460;-80
2022/10/28 03:59:57;;;;;;;14.95;9.07;;;14.40;99.90;;;;;;5048600;28;20041;-79
2022/10/28 04:02:23;;;;;;;15.60;9.40;;;14.40;99.90;;;;;;5035250;28;20102;-79
2022/10/28 04:04:49;;;;;;;15.18;9.23;;;14.40;99.90;;;;;;5035268;28;20429;-79
2022/10/28 04:07:14;;;;;;;14.27;9.32;;;14.30;99.90;;;;;;5051470;28;20045;-79
2022/10/28 04:09:40;;;;;;;15.95;9.18;;;14.30;99.90;;;;;;5052150;28;20040;-79
2022/10/28 04:12:06;;;;;;;16.20;9.05;;;14.30;99.90;;;;;;5051423;28;20043;-81
2022/10/28 04:14:31;;;;;;;13.82;8.18;;;14.30;99.90;;;;;;5051525;28;20175;-79
2022/10/28 04:16:57;;;;;;;17.88;8.50;;;14.30;99.90;;;;;;5050928;28;20048;-79
2022/10/28 04:19:22;;;;;;;15.27;8.98;;;14.30;99.90;;;;;;5068475;28;20048;-79
2022/10/28 04:21:48;;;;;;;16.50;9.35;;;14.30;99.90;;;;;;5068405;28;20052;-79
2022/10/28 04:24:14;;;;;;;17.55;10.25;;;14.20;99.90;;;;;;5067488;28;20041;-79
2022/10/28 04:26:39;;;;;;;15.30;8.73;;;14.20;99.90;;;;;;5051146;28;20444;-79
2022/10/28 04:29:05;;;;;;;14.27;9.20;;;14.20;99.90;;;;;;5068476;28;20036;-79
2022/10/28 04:31:30;;;;;;;15.90;8.95;;;14.10;99.90;;;;;;5051114;28;20029;-80
2022/10/28 04:33:56;;;;;;;15.43;8.90;;;14.10;99.90;;;;;;5051926;28;20087;-79
2022/10/28 04:36:21;;;;;;;14.23;9.10;;;14.20;99.90;;;;;;5051052;28;20501;-79
2022/10/28 04:38:47;;;;;;;17.15;9.60;;;14.30;99.90;;;;;;5051601;28;20072;-79
2022/10/28 04:41:13;;;;;;;14.57;8.95;;;14.30;99.90;;;;;;5067540;28;20063;-79
2022/10/28 04:43:39;;;;;;;19.42;11.63;;;14.40;99.90;;;;;;5035156;28;20068;-80
2022/10/28 04:46:05;;;;;;;16.55;12.40;;;14.30;99.90;;;;;;5050699;28;20527;-80
2022/10/28 04:48:33;;;;;;;18.50;12.55;;;14.30;99.90;;;;;;5050739;28;20033;-80
2022/10/28 04:50:59;;;;;;;17.20;11.80;;;14.30;99.90;;;;;;5051512;28;20040;-79
2022/10/28 04:53:25;;;;;;;15.60;10.70;;;14.30;99.90;;;;;;5051462;28;20033;-80
2022/10/28 04:55:50;;;;;;;17.80;10.75;;;14.40;99.90;;;;;;5050436;28;20096;-80
2022/10/28 04:58:16;;;;;;;16.98;10.80;;;14.40;99.90;;;;;;5023445;28;20045;-80
2022/10/28 05:00:41;;;;;;;17.10;11.73;;;14.40;99.90;;;;;;5049834;28;20141;-80
2022/10/28 05:03:07;;;;;;;14.88;10.80;;;14.40;99.90;;;;;;5051869;28;20056;-80
2022/10/28 05:05:32;;;;;;;16.73;10.32;;;14.50;99.90;;;;;;5050639;28;20033;-80
2022/10/28 05:07:58;;;;;;;17.98;12.65;;;14.50;99.90;;;;;;5035135;28;20037;-80
2022/10/28 05:10:24;;;;;;;31.40;23.85;;;14.60;99.90;;;;;;5034712;28;20104;-80
2022/10/28 05:12:50;;;;;;;23.27;17.60;;;14.60;99.90;;;;;;5051896;28;20397;-80
2022/10/28 05:15:15;;;;;;;21.90;13.23;;;14.60;99.90;;;;;;5051751;28;20120;-80
2022/10/28 05:17:45;;;;;;;17.88;11.20;;;14.60;99.90;;;;;;5051108;28;20063;-79
2022/10/28 05:20:13;;;;;;;17.35;10.57;;;14.60;99.90;;;;;;5051322;28;20052;-79
2022/10/28 05:22:54;;;;;;;20.02;10.63;;;14.50;99.90;;;;;;5051282;28;20044;-80
2022/10/28 05:25:21;;;;;;;15.70;9.82;;;14.40;99.90;;;;;;5033382;28;20081;-80
2022/10/28 05:27:46;;;;;;;16.95;10.48;;;14.50;99.90;;;;;;5052622;28;20033;-79
2022/10/28 05:30:13;;;;;;;17.85;10.63;;;14.50;99.90;;;;;;5050680;28;20485;-80
2022/10/28 05:32:38;;;;;;;17.40;9.35;;;14.50;99.90;;;;;;5035571;28;20584;-80
2022/10/28 05:35:05;;;;;;;17.15;10.43;;;14.50;99.90;;;;;;5035602;28;20124;-79
2022/10/28 05:37:30;;;;;;;19.02;10.43;;;14.50;99.90;;;;;;5054438;28;20048;-79
2022/10/28 05:39:56;;;;;;;17.95;10.13;;;14.50;99.90;;;;;;5053665;28;20037;-79
2022/10/28 05:42:21;;;;;;;17.45;9.95;;;14.50;99.90;;;;;;5054663;28;20565;-79
2022/10/28 05:44:47;;;;;;;20.30;10.18;;;14.50;99.90;;;;;;5060085;28;20531;-79
2022/10/28 05:47:13;;;;;;;16.88;9.63;;;14.60;99.90;;;;;;5054325;28;20033;-79
2022/10/28 05:49:38;;;;;;;15.07;9.20;;;14.50;99.90;;;;;;5034840;28;20130;-80
2022/10/28 05:52:04;;;;;;;18.33;10.65;;;14.50;99.90;;;;;;5037294;28;20033;-79
2022/10/28 05:54:30;;;;;;;19.77;10.10;;;14.50;99.90;;;;;;5051519;28;20037;-79
2022/10/28 05:56:55;;;;;;;16.55;10.15;;;14.50;99.90;;;;;;5037444;28;20072;-79
2022/10/28 05:59:21;;;;;;;16.67;9.40;;;14.50;99.90;;;;;;5049630;28;20404;-80
2022/10/28 06:01:46;;;;;;;16.38;10.07;;;14.50;99.90;;;;;;5052278;28;20048;-79
2022/10/28 06:04:12;;;;;;;19.15;10.45;;;14.40;99.90;;;;;;5053338;28;20103;-79
2022/10/28 06:06:38;;;;;;;16.70;9.43;;;14.50;99.90;;;;;;5037341;28;20040;-80
2022/10/28 06:09:03;;;;;;;19.20;9.85;;;14.50;99.90;;;;;;5070157;28;20040;-79
2022/10/28 06:11:29;;;;;;;14.13;9.27;;;14.50;99.90;;;;;;5052542;28;20508;-79
2022/10/28 06:13:54;;;;;;;19.20;9.98;;;14.40;99.90;;;;;;5053908;28;20040;-79
2022/10/28 06:16:20;;;;;;;15.70;9.32;;;14.50;99.90;;;;;;5048107;28;20033;-79
2022/10/28 06:18:45;;;;;;;16.95;9.60;;;14.50;99.90;;;;;;5067704;28;20043;-79
2022/10/28 06:21:11;;;;;;;18.00;9.98;;;14.50;99.90;;;;;;5051411;28;20090;-79
2022/10/28 06:23:37;;;;;;;16.52;9.50;;;14.50;99.90;;;;;;5053671;28;20052;-79
2022/10/28 06:26:03;;;;;;;15.35;9.20;;;14.50;99.90;;;;;;5035119;28;20405;-79
2022/10/28 06:28:29;;;;;;;14.27;8.63;;;14.50;99.90;;;;;;5052771;28;20091;-81
2022/10/28 06:31:02;;;;;;;16.15;9.23;;;14.50;99.90;;;;;;5050338;28;20029;-80
2022/10/28 06:33:27;;;;;;;16.10;9.38;;;14.50;99.90;;;;;;5036897;28;20490;-81
2022/10/28 06:35:57;;;;;;;16.17;9.30;;;14.50;99.90;;;;;;5036216;28;20076;-81
2022/10/28 06:38:24;;;;;;;14.57;8.70;;;14.40;99.90;;;;;;5053195;28;20044;-80
2022/10/28 06:40:49;;;;;;;16.67;9.45;;;14.50;99.90;;;;;;5052562;28;20551;-81
2022/10/28 06:43:15;;;;;;;18.58;8.88;;;14.50;99.90;;;;;;5036675;28;20045;-81
2022/10/28 06:45:41;;;;;;;16.27;9.20;;;14.50;99.90;;;;;;5034587;28;20128;-81
2022/10/28 06:48:06;;;;;;;22.85;10.02;;;14.50;99.90;;;;;;5036551;28;20374;-80
2022/10/28 06:50:33;;;;;;;14.20;9.30;;;14.50;99.90;;;;;;5050988;28;20041;-80
2022/10/28 06:52:59;;;;;;;17.70;9.48;;;14.40;99.90;;;;;;5036687;28;20069;-81
2022/10/28 06:55:25;;;;;;;21.23;9.27;;;14.50;99.90;;;;;;5035986;28;20473;-81
2022/10/28 06:57:51;;;;;;;15.68;9.07;;;14.40;99.90;;;;;;5053388;28;20048;-80
2022/10/28 07:00:17;;;;;;;15.45;8.45;;;14.50;99.90;;;;;;5051961;28;20477;-81
2022/10/28 07:02:43;;;;;;;18.80;9.20;;;14.50;99.90;;;;;;5036199;28;20053;-81
2022/10/28 07:05:09;;;;;;;16.70;9.55;;;14.40;99.90;;;;;;5051513;28;20390;-81
2022/10/28 07:07:38;;;;;;;17.52;8.77;;;14.40;99.90;;;;;;5051537;28;20045;-81
2022/10/28 07:10:07;;;;;;;16.23;9.02;;;14.40;99.90;;;;;;5043939;28;20041;-81
2022/10/28 07:12:32;;;;;;;15.30;8.45;;;14.40;99.90;;;;;;5052883;28;20045;-81
2022/10/28 07:14:58;;;;;;;15.18;8.77;;;14.40;99.90;;;;;;5052002;28;20565;-81
2022/10/28 07:17:24;;;;;;;15.10;8.85;;;14.40;99.90;;;;;;5052688;28;20040;-81
2022/10/28 07:19:49;;;;;;;15.05;8.43;;;14.40;99.90;;;;;;5050504;28;20457;-81
2022/10/28 07:22:15;;;;;;;19.20;8.48;;;14.40;99.90;;;;;;5036125;28;20036;-81
2022/10/28 07:24:40;;;;;;;18.50;9.32;;;14.50;99.90;;;;;;5052606;28;20037;-81
2022/10/28 07:27:07;;;;;;;15.05;7.60;;;14.50;99.90;;;;;;5051735;28;20041;-81
2022/10/28 07:29:33;;;;;;;17.80;8.85;;;14.50;99.90;;;;;;5035892;28;20128;-81
2022/10/28 07:31:58;;;;;;;15.52;8.93;;;14.60;99.90;;;;;;5051058;28;20127;-81
2022/10/28 07:34:24;;;;;;;18.05;8.73;;;14.70;99.90;;;;;;5051257;28;20040;-81
2022/10/28 07:36:51;;;;;;;15.02;8.20;;;14.70;99.90;;;;;;5051376;28;20090;-81
2022/10/28 07:39:17;;;;;;;15.20;8.35;;;14.90;99.90;;;;;;5034569;28;20055;-81
2022/10/28 07:41:42;;;;;;;14.00;7.90;;;15.00;99.90;;;;;;5052579;28;20123;-81
2022/10/28 07:44:08;;;;;;;16.98;8.15;;;15.00;99.90;;;;;;5051385;28;20041;-82
2022/10/28 07:46:33;;;;;;;18.35;8.70;;;15.00;99.90;;;;;;5052411;28;20098;-81
2022/10/28 07:48:59;;;;;;;15.55;7.88;;;15.00;99.90;;;;;;5024794;28;20405;-81
2022/10/28 07:51:25;;;;;;;16.73;8.23;;;15.10;99.90;;;;;;5049976;28;20029;-82
2022/10/28 07:53:51;;;;;;;19.52;8.15;;;15.20;99.90;;;;;;5033703;28;20507;-80
2022/10/28 07:56:16;;;;;;;17.63;8.00;;;15.20;99.90;;;;;;5043141;28;20025;-80
2022/10/28 07:58:43;;;;;;;14.38;8.82;;;15.30;99.90;;;;;;5033514;28;20481;-80
2022/10/28 08:01:11;;;;;;;18.73;7.75;;;15.50;99.90;;;;;;5068522;28;20045;-80
2022/10/28 08:03:36;;;;;;;18.00;8.20;;;15.50;99.90;;;;;;5051748;28;20049;-80
2022/10/28 08:06:08;;;;;;;16.08;8.07;;;15.60;99.90;;;;;;5051888;28;20508;-80
2022/10/28 08:08:34;;;;;;;14.65;7.03;;;15.80;99.90;;;;;;5067878;28;20428;-80
2022/10/28 08:11:09;;;;;;;16.80;7.03;;;15.80;99.90;;;;;;5051102;28;20041;-80
2022/10/28 08:13:35;;;;;;;13.32;7.03;;;15.90;99.90;;;;;;5050335;28;20503;-80
2022/10/28 08:16:01;;;;;;;15.18;7.40;;;16.00;99.90;;;;;;5032880;28;20124;-80
2022/10/28 08:18:26;;;;;;;17.65;7.20;;;16.10;99.90;;;;;;5049368;28;20516;-80
2022/10/28 08:20:52;;;;;;;13.65;6.72;;;16.10;99.90;;;;;;5065992;28;20139;-80
2022/10/28 08:23:17;;;;;;;15.98;7.22;;;16.20;99.90;;;;;;5049430;28;20036;-80
2022/10/28 08:25:48;;;;;;;14.43;6.80;;;16.20;99.90;;;;;;5049626;28;20036;-80
2022/10/28 08:28:14;;;;;;;16.30;6.85;;;16.30;99.90;;;;;;5050222;28;20072;-80
2022/10/28 08:30:39;;;;;;;12.20;6.28;;;16.40;99.90;;;;;;5050387;28;20071;-80
2022/10/28 08:33:05;;;;;;;16.08;6.75;;;16.40;99.90;;;;;;5035031;28;20382;-81
2022/10/28 08:35:30;;;;;;;15.40;7.03;;;16.50;99.90;;;;;;5067670;28;20044;-80
2022/10/28 08:37:56;;;;;;;16.65;7.05;;;16.60;99.90;;;;;;5050042;28;20037;-80
2022/10/28 08:40:36;;;;;;;13.98;6.75;;;16.50;99.90;;;;;;5050208;28;20068;-80
2022/10/28 08:43:31;;;;;;;11.85;5.93;;;16.60;99.90;;;;;;5050749;28;20045;-80
2022/10/28 08:46:11;;;;;;;14.23;5.93;;;16.70;99.90;;;;;;5067147;28;20037;-80
2022/10/28 08:48:36;;;;;;;14.27;6.53;;;16.80;99.90;;;;;;5033699;28;20040;-80
2022/10/28 08:51:10;;;;;;;14.52;6.57;;;16.80;99.90;;;;;;5050411;28;20041;-80
2022/10/28 08:53:45;;;;;;;16.27;6.68;;;16.90;99.90;;;;;;5066795;28;20055;-80
2022/10/28 08:56:44;;;;;;;14.85;6.78;;;17.00;99.90;;;;;;5049962;28;20037;-80
2022/10/28 08:59:14;;;;;;;14.95;6.05;;;17.00;99.90;;;;;;5033160;28;20543;-80
2022/10/28 09:01:47;;;;;;;13.77;6.45;;;17.10;99.90;;;;;;5035155;28;20117;-79
2022/10/28 09:04:39;;;;;;;13.20;6.43;;;17.10;99.90;;;;;;5053519;28;20055;-80
2022/10/28 09:07:08;;;;;;;13.95;6.07;;;17.20;99.90;;;;;;5071110;28;20069;-80
2022/10/28 09:09:34;;;;;;;14.23;5.93;;;17.20;99.90;;;;;;5051811;28;20071;-80
2022/10/28 09:12:16;;;;;;;14.93;6.35;;;17.30;99.90;;;;;;5047692;28;20505;-80
2022/10/28 09:15:00;;;;;;;;;;;17.30;99.90;;;;;;5055320;28;20045;-80
2022/10/28 09:17:51;;;;;;;14.13;6.47;;;17.30;99.90;;;;;;5054155;28;19932;-80
2022/10/28 09:20:21;;;;;;;12.10;5.70;;;17.30;99.90;;;;;;5063205;28;20055;-79
2022/10/28 09:23:08;;;;;;;16.75;6.22;;;17.30;99.90;;;;;;5054136;28;20535;-79
2022/10/28 09:25:48;;;;;;;15.32;5.90;;;17.40;99.90;;;;;;5071751;28;20037;-80
2022/10/28 09:28:45;;;;;;;13.88;5.55;;;17.40;99.90;;;;;;5053869;28;20040;-80
2022/10/28 09:31:34;;;;;;;16.73;7.72;;;17.40;99.90;;;;;;5071259;28;20515;-80
2022/10/28 09:34:18;;;;;;;15.05;6.13;;;17.40;99.90;;;;;;5036368;28;20122;-80
2022/10/28 09:37:04;;;;;;;13.82;6.15;;;17.40;99.90;;;;;;5036211;28;20120;-80
2022/10/28 09:39:44;;;;;;;14.75;6.55;;;17.50;99.90;;;;;;5053021;28;20041;-80
2022/10/28 09:42:18;;;;;;;11.52;6.53;;;17.50;99.90;;;;;;5054528;28;20033;-80
2022/10/28 09:44:55;;;;;;;14.20;5.72;;;17.50;99.90;;;;;;5071262;28;20179;-80
2022/10/28 09:47:29;;;;;;;15.73;7.07;;;17.50;99.90;;;;;;5054514;28;20576;-80
2022/10/28 09:50:00;;;;;;;13.82;6.22;;;17.40;99.90;;;;;;5054247;28;20086;-80
2022/10/28 09:53:03;;;;;;;15.75;6.88;;;17.50;99.90;;;;;;5070817;28;20041;-80
2022/10/28 09:55:30;;;;;;;15.52;6.40;;;17.50;99.90;;;;;;5027580;28;20037;-80
2022/10/28 09:57:56;;;;;;;14.02;5.97;;;17.50;99.90;;;;;;5037958;28;20055;-80
2022/10/28 10:00:21;;;;;;;16.10;7.00;;;17.50;99.90;;;;;;5053963;28;20494;-80
2022/10/28 10:02:58;;;;;;;11.75;6.07;;;17.40;99.90;;;;;;5053977;28;20056;-80
2022/10/28 10:05:25;;;;;;;16.23;6.80;;;17.50;99.90;;;;;;5037496;28;20048;-80
2022/10/28 10:07:56;;;;;;;14.07;6.43;;;17.50;99.90;;;;;;5054061;28;20500;-80
2022/10/28 10:10:38;;;;;;;18.55;6.82;;;17.50;99.90;;;;;;5037644;28;20498;-80
2022/10/28 10:13:06;;;;;;;13.48;5.75;;;17.50;99.90;;;;;;5053509;28;20040;-80
2022/10/28 10:15:43;;;;;;;16.65;6.57;;;17.50;99.90;;;;;;5053890;28;20163;-80
2022/10/28 10:18:16;;;;;;;13.07;6.35;;;17.60;99.90;;;;;;5037592;28;20060;-80
2022/10/28 10:20:54;;;;;;;12.57;5.55;;;17.60;99.90;;;;;;5053700;28;20086;-80
2022/10/28 10:23:26;;;;;;;14.15;6.28;;;17.60;99.90;;;;;;5037060;28;20037;-80
2022/10/28 10:26:05;;;;;;;14.65;6.28;;;17.60;99.90;;;;;;5053595;28;20041;-80
2022/10/28 10:28:33;;;;;;;14.48;5.97;;;17.60;99.90;;;;;;5053767;28;20072;-80
2022/10/28 10:31:02;;;;;;;15.93;6.25;;;17.60;99.90;;;;;;5035873;28;20497;-80
2022/10/28 10:33:32;;;;;;;15.80;5.93;;;17.60;99.90;;;;;;5052848;28;20044;-80
2022/10/28 10:36:21;;;;;;;15.98;5.40;;;17.60;99.90;;;;;;5036956;28;20073;-80
2022/10/28 10:38:50;;;;;;;16.05;5.45;;;17.70;99.90;;;;;;5036927;28;20044;-80
2022/10/28 10:41:32;;;;;;;18.30;6.05;;;17.80;99.90;;;;;;5053413;28;20098;-80
2022/10/28 10:43:57;;;;;;;15.48;6.30;;;17.80;99.90;;;;;;5052310;28;20366;-80
2022/10/28 10:46:23;;;;;;;17.63;5.90;;;17.90;99.90;;;;;;5036796;28;20074;-80
2022/10/28 10:49:06;;;;;;;15.98;5.13;;;17.90;99.90;;;;;;5036845;28;20029;-80
2022/10/28 10:51:32;;;;;;;19.63;5.80;;;18.00;99.90;;;;;;5069860;28;20166;-80
2022/10/28 10:53:59;;;;;;;12.05;5.50;;;18.00;99.90;;;;;;5053131;28;20131;-80
2022/10/28 10:56:32;;;;;;;15.45;5.72;;;18.10;99.90;;;;;;5036618;28;20086;-80
2022/10/28 10:59:04;;;;;;;19.63;5.38;;;18.10;99.90;;;;;;5052997;28;20045;-80
2022/10/28 11:01:38;;;;;;;15.27;5.80;;;18.10;99.90;;;;;;5036551;28;20052;-80
2022/10/28 11:04:06;;;;;;;13.27;5.90;;;18.20;99.90;;;;;;5052847;28;20056;-79
2022/10/28 11:06:36;;;;;;;13.70;6.20;;;18.20;99.90;;;;;;5036571;28;20400;-80
2022/10/28 11:09:16;;;;;;;15.60;5.45;;;18.20;99.90;;;;;;5036340;28;20091;-80
2022/10/28 11:11:42;;;;;;;12.52;5.45;;;18.30;99.90;;;;;;5053038;28;20044;-80
2022/10/28 11:14:08;;;;;;;11.18;4.78;;;18.20;99.90;;;;;;5036160;28;20045;-80
2022/10/28 11:16:55;;;;;;;15.52;5.15;;;18.30;99.90;;;;;;5036247;28;20037;-80
2022/10/28 11:19:29;;;;;;;15.82;6.05;;;18.40;99.90;;;;;;5052725;28;20044;-80
2022/10/28 11:22:13;;;;;;;15.98;4.97;;;18.50;99.90;;;;;;5036125;28;20036;-80
2022/10/28 11:24:54;;;;;;;16.92;6.38;;;18.50;99.90;;;;;;5051866;28;20045;-80
2022/10/28 11:27:47;;;;;;;13.93;5.88;;;18.60;99.90;;;;;;5035281;28;20033;-80
2022/10/28 11:30:19;;;;;;;13.75;5.40;;;18.60;99.90;;;;;;5052325;28;20037;-80
2022/10/28 11:33:08;;;;;;;;;;;18.70;99.90;;;;;;5034298;28;20078;-80
2022/10/28 11:35:46;;;;;;;16.35;5.90;;;18.70;99.90;;;;;;5069306;28;20285;-80
2022/10/28 11:38:14;;;;;;;19.08;5.57;;;18.80;99.90;;;;;;5069102;28;20037;-80
2022/10/28 11:41:08;;;;;;;13.23;6.05;;;18.80;99.90;;;;;;5052470;28;20045;-80
2022/10/28 11:43:57;;;;;;;13.55;5.20;;;18.80;99.90;;;;;;5052480;28;20045;-80
2022/10/28 11:46:32;;;;;;;16.40;6.30;;;18.90;99.90;;;;;;5052551;28;20397;-81
2022/10/28 11:49:35;;;;;;;15.98;5.88;;;18.90;99.90;;;;;;5052129;28;20033;-80
2022/10/28 11:52:24;;;;;;;12.85;5.80;;;18.90;99.90;;;;;;5052129;28;20079;-81
2022/10/28 11:55:02;;;;;;;14.60;5.65;;;18.80;99.90;;;;;;5069039;28;20040;-81
2022/10/28 11:57:36;;;;;;;13.95;5.68;;;18.80;99.90;;;;;;5068775;28;20045;-81
2022/10/28 12:00:31;;;;;;;16.48;5.82;;;18.80;99.90;;;;;;5052117;28;20066;-80
2022/10/28 12:03:22;;;;;;;14.25;5.68;;;18.90;99.90;;;;;;5051680;28;20107;-80
2022/10/28 12:06:16;;;;;;;11.90;5.25;;;18.90;99.90;;;;;;5068058;28;20049;-81
2022/10/28 12:09:03;;;;;;;14.25;5.80;;;18.90;99.90;;;;;;5043057;28;20059;-81
2022/10/28 12:11:31;;;;;;;13.63;6.20;;;18.90;99.90;;;;;;5052145;28;20063;-81
2022/10/28 12:14:01;;;;;;;14.20;5.40;;;18.90;99.90;;;;;;5050978;28;20095;-81
2022/10/28 12:16:49;;;;;;;16.08;5.25;;;19.00;99.90;;;;;;5035567;28;20037;-80
2022/10/28 12:19:22;;;;;;;12.93;5.18;;;19.00;99.90;;;;;;5023264;28;20512;-80
2022/10/28 12:22:03;;;;;;;14.73;5.30;;;19.00;99.90;;;;;;5049511;28;20044;-79
2022/10/28 12:24:32;;;;;;;14.80;5.40;;;19.10;99.90;;;;;;5023454;28;20037;-79
2022/10/28 12:27:04;;;;;;;14.90;5.18;;;19.10;99.90;;;;;;5041922;28;20037;-78
2022/10/28 12:29:37;;;;;;;13.05;5.55;;;19.10;99.90;;;;;;5067231;28;20389;-78
2022/10/28 12:32:10;;;;;;;12.00;4.97;;;19.20;99.90;;;;;;5050804;28;20052;-78
2022/10/28 12:34:54;;;;;;;15.32;5.50;;;19.30;99.90;;;;;;5047199;28;20037;-78
2022/10/28 12:37:42;;;;;;;14.70;5.45;;;19.40;99.90;;;;;;5035262;28;20072;-78
2022/10/28 12:40:23;;;;;;;13.15;5.07;;;19.40;99.90;;;;;;5055325;28;20142;-78
2022/10/28 12:43:04;;;;;;;14.82;5.78;;;19.40;99.90;;;;;;5053633;28;20044;-78
2022/10/28 12:45:31;;;;;;;15.50;5.65;;;19.50;99.90;;;;;;5053189;28;20037;-78
2022/10/28 12:48:13;;;;;;;17.13;4.93;;;19.60;99.90;;;;;;5043520;28;20159;-78
2022/10/28 12:50:43;;;;;;;13.15;5.38;;;19.60;99.90;;;;;;5054980;28;20036;-78
2022/10/28 12:53:39;;;;;;;17.75;5.05;;;19.60;99.90;;;;;;5054026;28;20041;-78
2022/10/28 12:56:25;;;;;;;18.90;5.10;;;19.70;99.90;;;;;;5067759;28;20052;-78
2022/10/28 12:59:02;;;;;;;15.02;5.93;;;19.70;99.90;;;;;;5055154;28;20044;-78